• Join FlightAware (Why Join?)
  • Login
  • US Flag 
12:45PM EDT


 

Airport Tracker/Info


-or-


 

Live Flight TrackerFlight Track Log ✈ N28KP ✈ 19-Nov-2013 ✈ KHLN - KBFI

Flight Track Log - Related Links

Times and Time Zones

All times are in EST time to prevent confusion due to time zone crossing. See the N28KP flight status page for this flight to view local times or setup timezone preferences in your user account.

Time Position Orientation Groundspeed Altitude Reporting Facility
EST Latitude Longitude Course Direction KTS MPH feet Rate Location/Type
09:34AM 46.6236 -112.1219 280° West 224 258 8,900  Level Salt Lake Center
09:35AM 46.6748 -112.4890 281° West  Level Estimated
09:36AM 46.6856 -112.5736 281° West  Level FlightAware Approximate
09:36AM 46.6333 -112.1856 283° West 122 140 11,000  Level Salt Lake Center
09:37AM 46.6964 -112.6582 281° West  Level FlightAware Approximate
09:37AM 46.6375 -112.2317 278° West 119 137 12,700  Level Salt Lake Center
09:38AM 46.7071 -112.7428 280° West  Level FlightAware Approximate
09:38AM 46.6458 -112.2950 281° West 133 153 14,200  Level Salt Lake Center
09:39AM 46.7177 -112.8275 280° West  Level FlightAware Approximate
09:39AM 46.6531 -112.3481 281° West 136 157 15,300  Level Salt Lake Center
09:40AM 46.7283 -112.9122 280° West  Level FlightAware Approximate
09:40AM 46.6603 -112.4103 280° West 153 176 15,900  Level Salt Lake Center
09:41AM 46.6717 -112.4811 283° West 177 204 16,000  Climbing Salt Lake Center
09:42AM 46.6842 -112.5544 284° West 187 215 15,900  Descending Salt Lake Center
09:43AM 46.6947 -112.6308 281° West 193 222 16,000  Climbing Salt Lake Center
09:44AM 46.7042 -112.7147 279° West 209 241 16,000  Level Salt Lake Center
09:45AM 46.7156 -112.8019 281° West 219 252 16,000  Level Salt Lake Center
09:46AM 46.7267 -112.8861 281° West 215 247 16,000  Level Salt Lake Center
09:47AM 46.7400 -112.9806 282° West 203 234 16,100  Climbing Salt Lake Center
09:48AM 46.7489 -113.0583 279° West 196 226 16,100 300 Level Salt Lake Center
09:49AM 46.7581 -113.1403 279° West 203 234 16,800 780 Climbing Salt Lake Center
09:50AM 46.7703 -113.2122 284° West 185 213 17,700 480 Climbing Salt Lake Center
09:51AM 46.7800 -113.2964 280° West 194 223 17,800  Climbing Salt Lake Center
09:52AM 46.7906 -113.3808 280° West 208 239 17,800  Level Salt Lake Center
09:53AM 46.8008 -113.4703 280° West 209 241 17,800  Level Salt Lake Center
09:54AM 46.8117 -113.5564 280° West 216 249 17,800  Level Salt Lake Center
09:56AM 46.8292 -113.7139 279° West 216 249 17,800  Level Seattle Center
09:57AM 46.8392 -113.7961 280° West 212 244 17,800  Level Seattle Center
09:58AM 46.8492 -113.8789 280° West 210 242 17,800  Level Seattle Center
09:59AM 46.8592 -113.9633 280° West 210 242 17,800  Level Seattle Center
10:00AM 46.8700 -114.0467 281° West 210 242 17,800  Level Seattle Center
10:01AM 46.8797 -114.1300 280° West 209 241 17,800  Level Seattle Center
10:02AM 46.8897 -114.2178 279° West 216 249 17,800  Level Seattle Center
10:03AM 46.9003 -114.3042 280° West 217 250 17,800  Level Seattle Center
10:04AM 46.9106 -114.3883 280° West 212 244 17,800  Level Seattle Center
10:05AM 46.9214 -114.4711 281° West 209 241 17,800  Level Seattle Center
10:06AM 46.9292 -114.5567 278° West 211 243 17,800 600 Level Seattle Center
10:07AM 46.9386 -114.6347 280° West 201 231 19,100 960 Climbing Seattle Center
10:08AM 46.9481 -114.7047 281° West 183 211 19,800 360 Climbing Seattle Center
10:09AM 46.9558 -114.7806 279° West 186 214 19,900 60 Climbing Seattle Center
10:10AM 46.9639 -114.8619 278° West 196 226 20,000  Climbing Seattle Center
10:11AM 46.9747 -114.9450 281° West 205 236 20,000  Level Seattle Center
10:12AM 46.9839 -115.0253 280° West 202 232 20,000  Level Seattle Center
10:13AM 46.9914 -115.1044 278° West 199 229 20,000  Level Seattle Center
10:14AM 47.0011 -115.2017 278° West 201 231 20,000  Level Seattle Center
10:15AM 47.0103 -115.2831 279° West 203 234 20,000  Level Seattle Center
10:16AM 47.0208 -115.3664 281° West 206 237 20,000  Level Seattle Center
10:17AM 47.0289 -115.4472 278° West 208 239 20,000  Level Seattle Center
10:18AM 47.0331 -115.4844 279° West 209 241 20,000  Level Salt Lake Center
10:19AM 47.0414 -115.5678 278° West 207 238 20,000  Level Salt Lake Center
10:20AM 47.0486 -115.6514 277° West 207 238 20,000  Level Salt Lake Center
10:20AM 47.0525 -115.6958 277° West 204 235 20,000  Level Seattle Center
10:21AM 47.0611 -115.7800 279° West 208 239 20,000  Level Seattle Center
10:22AM 47.0700 -115.8653 279° West 210 242 20,000  Level Seattle Center
10:23AM 47.0783 -115.9511 278° West 212 244 20,000  Level Seattle Center
10:24AM 47.0872 -116.0358 279° West 210 242 20,000  Level Seattle Center
10:25AM 47.0969 -116.1219 279° West 213 245 20,000  Level Seattle Center
10:26AM 47.1053 -116.2081 278° West 213 245 20,000  Level Seattle Center
10:27AM 47.1158 -116.3067 279° West 208 239 20,000  Level Seattle Center
10:28AM 47.1253 -116.3903 279° West 209 241 20,000  Level Seattle Center
10:29AM 47.1336 -116.4761 278° West 212 244 20,000  Level Seattle Center
10:30AM 47.1433 -116.5622 279° West 214 246 20,000  Level Seattle Center
10:31AM 47.1506 -116.6514 277° West 219 252 20,000  Level Seattle Center
10:32AM 47.1564 -116.7411 275° West 220 253 20,000  Level Seattle Center
10:33AM 47.1658 -116.8239 280° West 208 239 20,000  Level Seattle Center
10:34AM 47.1742 -116.9089 278° West 211 243 20,000  Level Seattle Center
10:35AM 47.1806 -116.9956 276° West 213 245 20,000  Level Seattle Center
10:36AM 47.1886 -117.0822 278° West 214 246 20,000  Level Seattle Center
10:37AM 47.1956 -117.1681 277° West 212 244 20,000  Level Seattle Center
10:38AM 47.2047 -117.2544 279° West 214 246 20,000  Level Seattle Center
10:39AM 47.2128 -117.3419 278° West 216 249 20,000  Level Seattle Center
10:40AM 47.2208 -117.4297 278° West 216 249 20,000  Level Seattle Center
10:41AM 47.2286 -117.5167 278° West 215 247 20,000  Level Seattle Center
10:42AM 47.2367 -117.6053 278° West 217 250 20,000  Level Seattle Center
10:43AM 47.2444 -117.6922 278° West 215 247 20,000  Level Seattle Center
10:45AM 47.2503 -117.7811 276° West 217 250 20,000  Level Seattle Center
10:46AM 47.2572 -117.8853 276° West 214 246 20,000  Level Seattle Center
10:47AM 47.2647 -117.9728 277° West 216 249 20,000  Level Seattle Center
10:48AM 47.2739 -118.0581 279° West 213 245 20,000  Level Seattle Center
10:49AM 47.2819 -118.1464 278° West 216 249 20,000  Level Seattle Center
10:50AM 47.2900 -118.2333 278° West 216 249 20,000  Level Seattle Center
10:51AM 47.2972 -118.3186 277° West 213 245 20,000  Level Seattle Center
10:52AM 47.3044 -118.4056 277° West 213 245 20,000  Level Seattle Center
10:53AM 47.3111 -118.4917 277° West 213 245 20,000  Level Seattle Center
10:54AM 47.3139 -118.5806 273° West 216 249 20,000  Level Seattle Center
10:55AM 47.3200 -118.6683 276° West 216 249 20,000  Level Seattle Center
10:56AM 47.3292 -118.7547 279° West 215 247 20,000  Level Seattle Center
10:57AM 47.3350 -118.8433 276° West 216 249 20,000  Level Seattle Center
10:58AM 47.3428 -118.9308 278° West 217 250 20,000  Level Seattle Center
10:59AM 47.3497 -119.0358 276° West 216 249 20,000  Level Seattle Center
11:00AM 47.3572 -119.1203 277° West 211 243 20,000  Level Seattle Center
11:01AM 47.3625 -119.2056 275° West 210 242 20,000  Level Seattle Center
11:02AM 47.3683 -119.2917 276° West 211 243 20,000  Level Seattle Center
11:03AM 47.3767 -119.3778 278° West 213 245 20,100  Climbing Seattle Center
11:04AM 47.3819 -119.4636 275° West 211 243 20,000 -60 Descending Seattle Center
11:05AM 47.3994 -119.5486 287° West 215 247 20,000  Level Seattle Center
11:06AM 47.4164 -119.6317 287° West 214 246 20,000  Level Seattle Center
11:07AM 47.4336 -119.7136 287° West 211 243 20,000  Level Seattle Center
11:08AM 47.4494 -119.7961 286° West 210 242 20,000  Level Seattle Center
11:09AM 47.4653 -119.8783 286° West 210 242 20,000  Level Seattle Center
11:10AM 47.4806 -119.9628 285° West 212 244 20,000  Level Seattle Center
11:11AM 47.4967 -120.0467 286° West 213 245 20,000  Level Seattle Center
11:12AM 47.5203 -120.1450 290° West 213 245 20,000  Level Seattle Center
11:13AM 47.5347 -120.2286 284° West 211 243 20,000  Level Seattle Center
11:14AM 47.5614 -120.3064 297° West 212 244 20,000  Level Seattle Center
11:15AM 47.5953 -120.3808 304° West 216 249 20,000  Level Seattle Center
11:16AM 47.6261 -120.4558 301° West 214 246 20,000  Level Seattle Center
11:17AM 47.6594 -120.5292 304° West 214 246 20,000  Level Seattle Center
11:18AM 47.6706 -120.6100 282° West 203 234 20,000 -240 Level Seattle Center
11:19AM 47.6819 -120.6914 282° West 201 231 19,600 -420 Descending Seattle Center
11:20AM 47.6908 -120.7808 278° West 215 247 19,200 -660 Descending Seattle Center
11:21AM 47.7003 -120.8736 279° West 226 260 18,300 -1,020 Descending Seattle Center
11:22AM 47.7114 -120.9606 281° West 219 252 17,200 -1,080 Descending Seattle Center
11:23AM 47.7228 -121.0489 281° West 219 252 16,200 -1,260 Descending Seattle Center
11:24AM 47.7297 -121.1511 276° West 218 251 14,700 -1,620 Descending Seattle Center
11:25AM 47.7372 -121.2322 278° West 203 234 13,000 -1,740 Descending Seattle Center
11:26AM 47.7458 -121.3117 279° West 205 236 11,500 -1,800 Descending Seattle Center
11:26AM 47.7447 -121.3231 262° West 205 236 11,200 -1,140 Descending Seattle Center
11:27AM 47.7539 -121.4061 279° West 203 234 10,200 -960 Descending Seattle Center
11:27AM 47.7558 -121.4186 283° West 202 232 10,100 -120 Descending Seattle Center
11:28AM 47.7578 -121.4864 272° West 197 227 10,100  Level Seattle Center
11:29AM 47.7528 -121.5528 264° West 188 216 10,100  Level Seattle Center
11:29AM 47.7525 -121.5639 268° West 192 221 10,100  Level Seattle Center
11:30AM 47.7494 -121.6339 266° West 186 214 10,100  Level Seattle Center
11:30AM 47.7478 -121.6403 249° West 188 216 10,100 -120 Level Seattle Center
11:31AM 47.7097 -121.6961 225° Southwest 202 232 10,000 -240 Descending Seattle Center
11:31AM 47.7064 -121.6994 214° Southwest 195 224 9,900 -1,320 Descending Seattle Center
11:32AM 47.6592 -121.7536 218° Southwest 212 244 8,600 -1,380 Descending Seattle Center
11:32AM 47.6561 -121.7564 211° Southwest 213 245 8,400 -1,620 Descending Seattle Center
11:33AM 47.6181 -121.8039 220° Southwest 209 241 7,000 -1,380 Descending Seattle Center
11:34AM 47.5711 -121.8669 222° Southwest 212 244 5,800 -960 Descending Seattle Center
11:35AM 47.5247 -121.9242 220° Southwest 211 243 5,100 -660 Descending Seattle Center
11:35AM 47.5169 -121.9336 219° Southwest 216 249 5,100 -720 Level Seattle Center
11:36AM 47.4797 -121.9789 219° Southwest 210 242 4,400 -660 Descending Seattle Center
11:37AM 47.4697 -121.9928 223° Southwest 206 237 4,400 -120 Level Seattle Center
11:37AM 47.4303 -122.0378 218° Southwest 194 223 4,300 -540 Descending Seattle Center
11:38AM 47.3972 -122.0872 225° Southwest 188 216 3,500 -900 Descending Seattle Center
11:38AM 47.3947 -122.0903 220° Southwest 187 215 3,400 -840 Descending Seattle Center
11:39AM 47.3681 -122.1511 237° Southwest 182 209 2,700 -780 Descending Seattle Center
11:39AM 47.3678 -122.1381 92° East 190 219 2,700 -480 Level Seattle Center
11:40AM 47.3939 -122.1922 305° West 166 191 2,300 -600 Descending Seattle Center
11:40AM 47.4003 -122.1972 332° Northwest 168 193 2,100 -840 Descending Seattle Center
11:41AM 47.4339 -122.2258 330° Northwest 151 174 1,500 -720 Descending Seattle Center
11:41AM 47.4375 -122.2294 326° Northwest 157 181 1,400 -360 Descending Seattle Center
11:42AM 47.4744 -122.2583 332° Northwest 144 166 1,100 -300 Descending Seattle Center
11:42AM 47.4728 -122.2569 151° Southeast 130 150 1,100 -420 Level Seattle Center
11:43AM 47.5036 -122.2825 331° Northwest 124 143 700 -480 Descending Seattle Center